Aviation Digital Data Service (ADDS)

Output produced by METARs form (0758 UTC 20 March 2019)
found at http://www.aviationweather.gov/metar/data/
 
Forecast for: WBSB (BRUNEI INTL AIRP, MY)
Text: TAF WBSB 200500Z 2006/2112 33010KT 7000 SCT015 FEW016CB
Forecast period: 0600 to 1100 UTC 20 March 2019
Forecast type: FROM: standard forecast or significant change
Winds: from the NNW (330 degrees) at 12 MPH (10 knots; 5.1 m/s)
Visibility: 4 miles (7 km)
Ceiling: at least 12,000 feet AGL
Clouds: scattered clouds at 1500 feet AGL
few clouds at 1600 feet AGL
Weather: no significant weather forecast for this period
Text: BECMG 2011/2013 20003KT SCT014 FEW015CB
Forecast period: 1100 UTC 20 March 2019 to 1200 UTC 21 March 2019
Forecast type: BECOMING: Conditions expected to become as follows by 1300 UTC 20 March 2019
Winds: from the SSW (200 degrees) at 3 MPH (3 knots; 1.5 m/s)
Visibility: 4 miles (7 km)
Ceiling: at least 12,000 feet AGL
Clouds: scattered clouds at 1400 feet AGL
few clouds at 1500 feet AGL
Weather: no significant weather forecast for this period